createdAt,value
2022-10-22T00:01:42.771Z,27.70
2022-10-22T00:04:11.294Z,33.80
2022-10-22T00:06:39.728Z,29.60
2022-10-22T00:09:08.340Z,24.70
2022-10-22T00:11:37.223Z,28.40
2022-10-22T00:14:05.869Z,35.30
2022-10-22T00:16:34.494Z,29.50
2022-10-22T00:19:03.563Z,33.30
2022-10-22T00:21:32.051Z,24.10
2022-10-22T00:24:01.822Z,29.30
2022-10-22T00:26:30.586Z,20.30
2022-10-22T00:28:58.920Z,35.40
2022-10-22T00:31:27.345Z,29.80
2022-10-22T00:33:57.546Z,27.60
2022-10-22T00:36:25.938Z,32.30
2022-10-22T00:38:56.093Z,30.30
2022-10-22T00:41:26.534Z,24.70
2022-10-22T00:43:59.128Z,34.00
2022-10-22T00:46:27.626Z,29.90
2022-10-22T00:48:58.161Z,29.00
2022-10-22T00:51:28.953Z,28.80
2022-10-22T00:54:01.954Z,31.50
2022-10-22T00:56:31.611Z,31.40
2022-10-22T00:59:01.215Z,29.60
2022-10-22T01:01:32.596Z,34.00
2022-10-22T01:04:04.252Z,28.40
2022-10-22T01:06:34.270Z,29.20
2022-10-22T01:09:12.400Z,30.00
2022-10-22T01:11:51.552Z,32.30
2022-10-22T01:14:28.756Z,30.00
2022-10-22T01:17:03.825Z,27.50
2022-10-22T01:19:57.831Z,31.90
2022-10-22T01:22:30.714Z,19.10
2022-10-22T01:25:01.965Z,34.90
2022-10-22T01:27:42.898Z,26.80
2022-10-22T01:30:13.499Z,34.50
2022-10-22T01:32:45.581Z,29.10
2022-10-22T01:35:18.011Z,27.30
2022-10-22T01:37:48.393Z,29.50
2022-10-22T01:40:18.119Z,35.00
2022-10-22T01:42:57.557Z,29.30
2022-10-22T01:45:27.002Z,31.50
2022-10-22T01:48:00.950Z,28.00
2022-10-22T01:51:01.023Z,30.30
2022-10-22T01:53:35.450Z,30.00
2022-10-22T01:56:14.274Z,30.10
2022-10-22T01:58:48.682Z,27.60
2022-10-22T02:01:21.948Z,28.80
2022-10-22T02:03:59.508Z,22.90
2022-10-22T02:06:29.711Z,34.10
2022-10-22T02:08:59.520Z,23.90
2022-10-22T02:11:28.299Z,34.60
2022-10-22T02:14:00.031Z,28.50
2022-10-22T02:16:33.829Z,30.80
2022-10-22T02:19:06.717Z,31.70
2022-10-22T02:21:35.100Z,31.10
2022-10-22T02:24:04.168Z,29.60
2022-10-22T02:26:35.494Z,33.10
2022-10-22T02:29:10.102Z,31.00
2022-10-22T02:31:40.787Z,34.30
2022-10-22T02:34:13.989Z,29.20
2022-10-22T02:36:46.673Z,22.10
2022-10-22T02:39:18.474Z,32.60
2022-10-22T02:41:47.213Z,35.00
2022-10-22T02:44:15.622Z,30.00
2022-10-22T02:46:44.359Z,37.60
2022-10-22T02:49:12.725Z,29.30
2022-10-22T02:51:41.147Z,34.90
2022-10-22T02:54:09.983Z,32.90
2022-10-22T02:56:38.492Z,30.10
2022-10-22T02:59:06.758Z,37.00
2022-10-22T03:01:35.464Z,34.10
2022-10-22T03:04:04.187Z,27.80
2022-10-22T03:06:32.975Z,35.10
2022-10-22T03:09:01.773Z,37.40
2022-10-22T03:11:30.315Z,28.90
2022-10-22T03:13:58.836Z,35.50
2022-10-22T03:16:27.471Z,31.90
2022-10-22T03:18:55.875Z,37.80
2022-10-22T03:21:28.267Z,29.90
2022-10-22T03:23:57.440Z,32.40
2022-10-22T03:26:26.072Z,33.00
2022-10-22T03:28:55.038Z,38.40
2022-10-22T03:31:24.088Z,31.00
2022-10-22T03:33:55.480Z,37.60
2022-10-22T03:36:26.367Z,27.20
2022-10-22T03:38:55.705Z,34.00
2022-10-22T03:41:24.270Z,38.40
2022-10-22T03:43:54.121Z,32.30
2022-10-22T03:46:22.668Z,28.60
2022-10-22T03:48:51.439Z,34.20
2022-10-22T03:51:21.122Z,38.10
2022-10-22T03:53:49.911Z,30.20
2022-10-22T03:56:20.160Z,33.00
2022-10-22T03:58:49.415Z,32.10
2022-10-22T04:01:18.473Z,38.20
2022-10-22T04:03:46.835Z,29.70
2022-10-22T04:06:15.464Z,33.60
2022-10-22T04:08:45.763Z,35.80
2022-10-22T04:11:15.511Z,32.20
2022-10-22T04:13:44.582Z,36.90
2022-10-22T04:16:15.346Z,33.60
2022-10-22T04:18:45.176Z,35.90
2022-10-22T04:21:16.866Z,37.20
2022-10-22T04:23:47.388Z,26.70
2022-10-22T04:26:18.510Z,31.90
2022-10-22T04:28:51.858Z,34.50
2022-10-22T04:31:22.980Z,35.60
2022-10-22T04:33:55.376Z,31.70
2022-10-22T04:36:25.162Z,27.70
2022-10-22T04:38:55.504Z,34.90
2022-10-22T04:41:30.425Z,27.70
2022-10-22T04:44:00.030Z,31.50
2022-10-22T04:46:31.616Z,35.80
2022-10-22T04:49:00.608Z,30.80
2022-10-22T04:51:29.302Z,35.40
2022-10-22T04:53:58.086Z,32.90
2022-10-22T04:56:28.723Z,33.90
2022-10-22T04:59:03.006Z,29.30
2022-10-22T05:01:36.880Z,31.10
2022-10-22T05:04:10.094Z,33.70
2022-10-22T05:06:38.471Z,36.00
2022-10-22T05:09:10.356Z,28.70
2022-10-22T05:11:47.980Z,33.90
2022-10-22T05:14:18.468Z,26.20
2022-10-22T05:16:47.451Z,34.90
2022-10-22T05:19:20.424Z,34.50
2022-10-22T05:21:49.856Z,26.50
2022-10-22T05:24:20.798Z,34.10
2022-10-22T05:26:50.710Z,33.80
2022-10-22T05:29:19.548Z,29.30
2022-10-22T05:31:48.192Z,32.70
2022-10-22T05:34:17.179Z,29.80
2022-10-22T05:36:47.065Z,33.70
2022-10-22T05:39:15.914Z,34.20
2022-10-22T05:41:45.115Z,32.90
2022-10-22T05:44:13.686Z,25.90
2022-10-22T05:46:43.084Z,35.00
2022-10-22T05:49:14.832Z,31.90
2022-10-22T05:51:43.563Z,34.10
2022-10-22T05:54:18.222Z,31.90
2022-10-22T05:56:46.815Z,34.40
2022-10-22T05:59:15.199Z,33.90
2022-10-22T06:01:44.272Z,28.00
2022-10-22T06:04:15.751Z,36.40
2022-10-22T06:06:45.913Z,30.40
2022-10-22T06:09:17.302Z,37.40
2022-10-22T06:11:52.842Z,30.20
2022-10-22T06:14:21.770Z,37.40
2022-10-22T06:16:52.509Z,34.30
2022-10-22T06:19:22.803Z,37.30
2022-10-22T06:21:51.529Z,30.10
2022-10-22T06:24:20.092Z,38.30
2022-10-22T06:26:50.917Z,37.70
2022-10-22T06:29:19.442Z,31.00
2022-10-22T06:31:48.121Z,37.40
2022-10-22T06:34:18.372Z,37.00
2022-10-22T06:36:47.480Z,35.50
2022-10-22T06:39:17.378Z,37.90
2022-10-22T06:41:49.100Z,32.90
2022-10-22T06:44:18.455Z,35.70
2022-10-22T06:46:48.814Z,36.20
2022-10-22T06:49:17.297Z,38.10
2022-10-22T06:51:48.819Z,36.70
2022-10-22T06:54:17.221Z,35.80
2022-10-22T06:56:47.863Z,37.40
2022-10-22T06:59:16.274Z,38.40
2022-10-22T07:01:44.959Z,36.90
2022-10-22T07:04:13.490Z,36.80
2022-10-22T07:06:41.880Z,34.10
2022-10-22T07:09:11.694Z,37.30
2022-10-22T07:11:42.022Z,36.60
2022-10-22T07:14:11.265Z,37.60
2022-10-22T07:16:42.504Z,37.30
2022-10-22T07:19:11.237Z,36.20
2022-10-22T07:21:39.871Z,31.40
2022-10-22T07:24:09.214Z,35.40
2022-10-22T07:26:37.705Z,35.10
2022-10-22T07:29:06.491Z,34.40
2022-10-22T07:31:35.351Z,33.90
2022-10-22T07:34:03.782Z,34.90
2022-10-22T07:36:32.410Z,33.40
2022-10-22T07:39:01.339Z,31.70
2022-10-22T07:41:31.056Z,33.50
2022-10-22T07:44:00.322Z,33.50
2022-10-22T07:46:29.099Z,30.50
2022-10-22T07:48:57.715Z,31.00
2022-10-22T07:51:26.651Z,30.60
2022-10-22T07:53:55.154Z,30.70
2022-10-22T07:56:24.082Z,32.40
2022-10-22T07:58:52.939Z,30.70
2022-10-22T08:01:21.642Z,27.80
2022-10-22T08:03:50.511Z,31.10
2022-10-22T08:06:21.341Z,30.20
2022-10-22T08:08:49.754Z,30.30
2022-10-22T08:11:18.261Z,29.50
2022-10-22T08:13:46.803Z,30.50
2022-10-22T08:16:16.112Z,30.40
2022-10-22T08:18:44.773Z,31.30
2022-10-22T08:21:13.247Z,30.60
2022-10-22T08:23:41.784Z,31.90
2022-10-22T08:26:10.557Z,31.30
2022-10-22T08:28:39.402Z,29.70
2022-10-22T08:31:10.705Z,30.20
2022-10-22T08:33:40.751Z,30.60
2022-10-22T08:36:10.799Z,29.40
2022-10-22T08:38:40.441Z,29.90
2022-10-22T08:41:32.915Z,29.50
2022-10-22T08:44:32.836Z,29.70
2022-10-22T08:47:12.893Z,29.90
2022-10-22T08:49:42.716Z,29.30
2022-10-22T08:52:14.249Z,28.10
2022-10-22T08:54:51.868Z,28.80
2022-10-22T08:57:36.886Z,30.20
2022-10-22T09:00:10.849Z,30.40
2022-10-22T09:02:48.271Z,29.70
2022-10-22T09:05:33.919Z,28.50
2022-10-22T09:08:03.017Z,29.20
2022-10-22T09:10:35.691Z,28.90
2022-10-22T09:13:04.548Z,27.50
2022-10-22T09:15:34.815Z,27.20
2022-10-22T09:18:20.601Z,27.90
2022-10-22T09:20:53.180Z,28.20
2022-10-22T09:23:28.578Z,27.90
2022-10-22T09:25:58.363Z,28.80
2022-10-22T09:28:29.501Z,27.70
2022-10-22T09:33:33.225Z,27.80
2022-10-22T09:36:05.378Z,30.90
2022-10-22T09:38:40.862Z,28.50
2022-10-22T09:41:09.902Z,30.00
2022-10-22T09:43:39.742Z,28.90
2022-10-22T09:46:14.258Z,27.90
2022-10-22T09:48:47.946Z,31.00
2022-10-22T09:51:20.360Z,29.40
2022-10-22T09:53:56.618Z,29.50
2022-10-22T09:56:27.380Z,30.60
2022-10-22T09:58:57.510Z,31.20
2022-10-22T10:01:28.651Z,31.00
2022-10-22T10:04:06.962Z,32.00
2022-10-22T10:06:40.936Z,33.10
2022-10-22T10:09:17.072Z,33.00
2022-10-22T10:11:51.107Z,32.30
2022-10-22T10:17:01.713Z,33.60
2022-10-22T10:19:48.839Z,32.70
2022-10-22T10:22:27.368Z,35.40
2022-10-22T10:25:10.390Z,31.00
2022-10-22T10:27:40.992Z,36.20
2022-10-22T10:30:14.582Z,34.70
2022-10-22T10:33:02.760Z,36.40
2022-10-22T10:35:38.910Z,34.00
2022-10-22T10:38:24.665Z,34.80
2022-10-22T10:41:00.477Z,35.00
2022-10-22T10:43:32.956Z,35.90
2022-10-22T10:46:07.683Z,35.80
2022-10-22T10:48:48.572Z,33.50
2022-10-22T10:51:30.006Z,35.30
2022-10-22T10:54:22.028Z,33.90
2022-10-22T10:56:53.625Z,34.40
2022-10-22T10:59:31.370Z,33.40
2022-10-22T11:02:32.907Z,34.10
2022-10-22T11:05:16.018Z,33.90
2022-10-22T11:07:51.035Z,33.00
2022-10-22T11:10:28.887Z,35.90
2022-10-22T11:13:02.037Z,35.40
2022-10-22T11:15:33.099Z,35.40
2022-10-22T11:18:08.472Z,34.20
2022-10-22T11:20:44.585Z,34.60
2022-10-22T11:23:19.959Z,33.20
2022-10-22T11:25:51.348Z,31.10
2022-10-22T11:28:25.709Z,35.10
2022-10-22T11:31:00.164Z,33.90
2022-10-22T11:33:34.079Z,34.40
2022-10-22T11:38:34.954Z,32.60
2022-10-22T11:41:07.263Z,35.10
2022-10-22T11:43:53.528Z,34.70
2022-10-22T11:46:40.332Z,36.10
2022-10-22T11:49:22.632Z,36.60
2022-10-22T11:51:51.974Z,34.60
2022-10-22T11:54:42.090Z,34.10
2022-10-22T11:57:27.300Z,36.30
2022-10-22T11:59:59.502Z,34.50
2022-10-22T12:02:44.822Z,35.30
2022-10-22T12:05:34.893Z,34.80
2022-10-22T12:08:22.370Z,35.80
2022-10-22T12:10:58.307Z,35.30
2022-10-22T12:13:29.053Z,33.70
2022-10-22T12:16:01.353Z,37.00
2022-10-22T12:18:34.583Z,37.20
2022-10-22T12:21:03.301Z,35.00
2022-10-22T12:23:34.433Z,35.80
2022-10-22T12:26:05.251Z,36.60
2022-10-22T12:28:40.284Z,38.60
2022-10-22T12:31:16.597Z,35.70
2022-10-22T12:33:45.709Z,34.30
2022-10-22T12:36:20.044Z,38.70
2022-10-22T12:38:48.633Z,38.80
2022-10-22T12:41:18.014Z,39.10
2022-10-22T12:43:47.396Z,39.20
2022-10-22T12:46:16.750Z,38.30
2022-10-22T12:48:46.390Z,37.60
2022-10-22T12:51:19.646Z,36.40
2022-10-22T12:53:50.316Z,37.50
2022-10-22T12:56:23.067Z,33.80
2022-10-22T12:58:58.908Z,35.10
2022-10-22T13:01:30.002Z,35.30
2022-10-22T13:04:23.164Z,35.20
2022-10-22T13:07:08.396Z,34.40
2022-10-22T13:09:40.889Z,34.10
2022-10-22T13:12:14.182Z,33.60
2022-10-22T13:14:43.307Z,36.10
2022-10-22T13:17:14.789Z,34.00
2022-10-22T13:19:46.403Z,34.20
2022-10-22T13:22:36.172Z,35.10
2022-10-22T13:25:35.067Z,33.90
2022-10-22T13:28:16.985Z,33.00
2022-10-22T13:30:55.710Z,33.40
2022-10-22T13:33:26.519Z,36.10
2022-10-22T13:35:59.629Z,35.70
2022-10-22T13:38:29.942Z,37.20
2022-10-22T13:40:58.993Z,36.70
2022-10-22T13:43:27.949Z,36.20
2022-10-22T13:45:59.524Z,36.80
2022-10-22T13:48:30.000Z,37.20
2022-10-22T13:51:00.676Z,38.10
2022-10-22T13:53:30.447Z,36.40
2022-10-22T13:56:00.000Z,37.70
2022-10-22T13:58:29.678Z,34.40
2022-10-22T14:01:02.277Z,37.60
2022-10-22T14:03:33.207Z,37.50
2022-10-22T14:06:01.958Z,37.70
2022-10-22T14:08:32.342Z,39.00
2022-10-22T14:11:03.255Z,38.30
2022-10-22T14:13:31.862Z,39.10
2022-10-22T14:16:03.239Z,39.20
2022-10-22T14:18:35.296Z,40.60
2022-10-22T14:21:18.006Z,39.80
2022-10-22T14:23:51.885Z,41.80
2022-10-22T14:26:25.734Z,39.50
2022-10-22T14:29:15.458Z,38.80
2022-10-22T14:31:44.922Z,38.50
2022-10-22T14:34:16.391Z,38.70
2022-10-22T14:36:45.745Z,37.90
2022-10-22T14:39:14.600Z,38.60
2022-10-22T14:41:43.996Z,38.20
2022-10-22T14:44:15.013Z,39.20
2022-10-22T14:46:46.276Z,42.40
2022-10-22T14:49:14.858Z,40.20
2022-10-22T14:51:43.195Z,39.70
2022-10-22T14:54:12.185Z,41.10
2022-10-22T14:56:40.687Z,43.20
2022-10-22T14:59:11.032Z,42.40
2022-10-22T15:01:40.118Z,43.00
2022-10-22T15:04:08.915Z,41.20
2022-10-22T15:06:38.363Z,40.10
2022-10-22T15:09:06.968Z,42.70
2022-10-22T15:11:35.636Z,43.40
2022-10-22T15:14:04.575Z,44.20
2022-10-22T15:16:33.858Z,42.70
2022-10-22T15:19:02.694Z,44.20
2022-10-22T15:21:31.238Z,42.80
2022-10-22T15:24:02.254Z,45.10
2022-10-22T15:26:31.421Z,45.80
2022-10-22T15:29:03.597Z,46.50
2022-10-22T15:31:49.485Z,53.40
2022-10-22T15:34:22.738Z,46.80
2022-10-22T15:36:53.915Z,49.00
2022-10-22T15:39:22.254Z,49.90
2022-10-22T15:41:52.692Z,49.00
2022-10-22T15:44:23.415Z,48.20
2022-10-22T15:46:55.966Z,49.40
2022-10-22T15:49:25.946Z,50.80
2022-10-22T15:51:55.532Z,45.10
2022-10-22T15:54:27.528Z,49.30
2022-10-22T15:57:01.401Z,50.80
2022-10-22T15:59:36.382Z,49.60
2022-10-22T16:02:06.698Z,48.80
2022-10-22T16:04:35.753Z,48.70
2022-10-22T16:07:04.216Z,48.80
2022-10-22T16:09:32.619Z,49.10
2022-10-22T16:12:02.215Z,49.20
2022-10-22T16:14:30.907Z,47.80
2022-10-22T16:17:01.178Z,49.30
2022-10-22T16:19:30.170Z,46.60
2022-10-22T16:22:01.929Z,46.60
2022-10-22T16:24:31.011Z,49.20
2022-10-22T16:26:59.660Z,48.50
2022-10-22T16:29:28.116Z,50.90
2022-10-22T16:31:57.954Z,49.10
2022-10-22T16:34:31.178Z,49.20
2022-10-22T16:37:01.762Z,48.90
2022-10-22T16:39:31.093Z,50.50
2022-10-22T16:41:59.617Z,48.90
2022-10-22T16:44:28.333Z,46.80
2022-10-22T16:46:58.920Z,50.50
2022-10-22T16:49:27.626Z,49.90
2022-10-22T16:51:56.080Z,50.20
2022-10-22T16:54:24.485Z,49.40
2022-10-22T16:56:52.883Z,48.80
2022-10-22T16:59:21.997Z,51.40
2022-10-22T17:01:54.371Z,52.20
2022-10-22T17:04:23.938Z,52.10
2022-10-22T17:06:52.258Z,53.20
2022-10-22T17:09:21.255Z,54.80
2022-10-22T17:11:50.328Z,53.50
2022-10-22T17:14:18.740Z,51.50
2022-10-22T17:16:48.486Z,54.60
2022-10-22T17:19:17.027Z,55.10
2022-10-22T17:21:45.639Z,56.70
2022-10-22T17:24:14.311Z,55.50
2022-10-22T17:26:44.367Z,57.00
2022-10-22T17:29:13.416Z,59.00
2022-10-22T17:31:41.826Z,57.10
2022-10-22T17:34:15.505Z,57.70
2022-10-22T17:36:49.307Z,57.40
2022-10-22T17:39:19.520Z,57.00
2022-10-22T17:41:48.452Z,57.30
2022-10-22T17:44:16.898Z,54.70
2022-10-22T17:46:45.694Z,57.50
2022-10-22T17:49:17.132Z,57.10
2022-10-22T17:51:45.851Z,57.00
2022-10-22T17:54:14.520Z,56.80
2022-10-22T17:56:42.957Z,58.70
2022-10-22T17:59:14.523Z,55.50
2022-10-22T18:01:46.459Z,58.40
2022-10-22T18:04:16.645Z,54.50
2022-10-22T18:06:46.402Z,61.50
2022-10-22T18:09:18.545Z,58.20
2022-10-22T18:11:47.730Z,58.20
2022-10-22T18:14:17.839Z,58.90
2022-10-22T18:16:46.437Z,61.80
2022-10-22T18:19:17.414Z,60.80
2022-10-22T18:21:46.533Z,57.00
2022-10-22T18:24:18.287Z,58.90
2022-10-22T18:26:47.204Z,62.30
2022-10-22T18:29:17.911Z,52.20
2022-10-22T18:31:51.246Z,56.10
2022-10-22T18:34:23.210Z,59.40
2022-10-22T18:36:54.044Z,58.50
2022-10-22T18:39:24.406Z,56.50
2022-10-22T18:41:53.049Z,57.20
2022-10-22T18:44:22.479Z,60.30
2022-10-22T18:46:51.481Z,57.90
2022-10-22T18:49:20.191Z,56.90
2022-10-22T18:51:52.195Z,52.00
2022-10-22T18:54:23.638Z,55.30
2022-10-22T18:56:53.165Z,54.80
2022-10-22T18:59:23.023Z,55.30
2022-10-22T19:01:52.347Z,52.50
2022-10-22T19:04:22.267Z,52.20
2022-10-22T19:06:50.954Z,49.80
2022-10-22T19:09:19.357Z,62.00
2022-10-22T19:11:47.862Z,64.90
2022-10-22T19:14:18.788Z,55.50
2022-10-22T19:16:47.749Z,52.20
2022-10-22T19:19:19.413Z,50.00
2022-10-22T19:21:48.811Z,49.10
2022-10-22T19:24:19.168Z,45.20
2022-10-22T19:26:49.859Z,48.80
2022-10-22T19:29:19.874Z,49.40
2022-10-22T19:31:50.673Z,46.60
2022-10-22T19:34:20.273Z,46.20
2022-10-22T19:36:51.060Z,46.90
2022-10-22T19:39:19.664Z,45.80
2022-10-22T19:41:48.188Z,45.10
2022-10-22T19:44:16.844Z,44.50
2022-10-22T19:46:45.450Z,44.90
2022-10-22T19:49:17.600Z,44.90
2022-10-22T19:51:49.428Z,41.90
2022-10-22T19:54:19.925Z,40.80
2022-10-22T19:56:49.158Z,41.60
2022-10-22T19:59:22.291Z,37.50
2022-10-22T20:01:51.350Z,38.00
2022-10-22T20:04:24.614Z,39.00
2022-10-22T20:06:57.903Z,37.40
2022-10-22T20:09:26.819Z,34.70
2022-10-22T20:11:55.443Z,35.10
2022-10-22T20:14:29.570Z,33.50
2022-10-22T20:16:58.418Z,41.00
2022-10-22T20:19:29.374Z,36.20
2022-10-22T20:24:31.888Z,32.60
2022-10-22T20:27:01.014Z,32.10
2022-10-22T20:29:30.551Z,30.80
2022-10-22T20:32:03.336Z,29.90
2022-10-22T20:34:35.111Z,30.10
2022-10-22T20:37:05.245Z,27.80
2022-10-22T20:39:33.679Z,27.90
2022-10-22T20:42:02.181Z,30.40
2022-10-22T20:44:30.877Z,27.10
2022-10-22T20:46:59.254Z,30.60
2022-10-22T20:49:27.728Z,33.80
2022-10-22T20:51:59.276Z,39.70
2022-10-22T20:54:27.712Z,52.90
2022-10-22T20:56:56.293Z,35.50
2022-10-22T20:59:32.011Z,30.80
2022-10-22T21:02:00.717Z,28.60
2022-10-22T21:04:29.880Z,28.80
2022-10-22T21:06:58.389Z,31.20
2022-10-22T21:09:27.462Z,30.30
2022-10-22T21:11:57.536Z,28.60
2022-10-22T21:14:25.902Z,30.20
2022-10-22T21:16:54.441Z,28.90
2022-10-22T21:19:23.621Z,38.00
2022-10-22T21:21:52.534Z,33.10
2022-10-22T21:24:24.280Z,30.50
2022-10-22T21:26:53.615Z,27.00
2022-10-22T21:29:22.308Z,28.60
2022-10-22T21:31:51.897Z,30.10
2022-10-22T21:34:20.778Z,27.60
2022-10-22T21:36:49.219Z,29.10
2022-10-22T21:39:17.644Z,26.00
2022-10-22T21:41:46.181Z,27.50
2022-10-22T21:44:14.673Z,25.80
2022-10-22T21:46:43.155Z,29.20
2022-10-22T21:49:11.623Z,25.10
2022-10-22T21:51:40.120Z,27.00
2022-10-22T21:54:08.526Z,27.40
2022-10-22T21:56:37.147Z,27.90
2022-10-22T21:59:07.567Z,29.60
2022-10-22T22:01:36.114Z,33.60
2022-10-22T22:04:04.736Z,28.00
2022-10-22T22:06:34.510Z,29.40
2022-10-22T22:09:04.366Z,29.70
2022-10-22T22:11:33.655Z,30.00
2022-10-22T22:14:02.039Z,26.40
2022-10-22T22:16:31.832Z,29.80
2022-10-22T22:21:34.269Z,28.90
2022-10-22T22:24:04.001Z,31.30
2022-10-22T22:26:33.481Z,29.80
2022-10-22T22:29:02.235Z,30.00
2022-10-22T22:31:32.165Z,31.20
2022-10-22T22:34:02.104Z,32.20
2022-10-22T22:36:34.287Z,32.00
2022-10-22T22:39:04.036Z,30.70
2022-10-22T22:41:32.959Z,31.80
2022-10-22T22:44:01.643Z,30.60
2022-10-22T22:46:30.279Z,31.80
2022-10-22T22:48:58.825Z,30.80
2022-10-22T22:51:27.413Z,32.90
2022-10-22T22:53:57.629Z,29.80
2022-10-22T22:56:28.689Z,33.80
2022-10-22T22:58:57.700Z,31.70
2022-10-22T23:01:28.117Z,32.30
2022-10-22T23:03:58.010Z,32.00
2022-10-22T23:06:28.097Z,32.30
2022-10-22T23:08:57.544Z,32.90
2022-10-22T23:11:28.510Z,30.30
2022-10-22T23:13:59.678Z,30.70
2022-10-22T23:16:29.792Z,33.90
2022-10-22T23:18:58.579Z,29.90
2022-10-22T23:21:30.244Z,30.60
2022-10-22T23:24:01.383Z,31.70
2022-10-22T23:26:31.562Z,30.70
2022-10-22T23:29:02.071Z,29.90
2022-10-22T23:31:30.899Z,29.60
2022-10-22T23:33:59.301Z,27.60
2022-10-22T23:36:28.473Z,29.30
2022-10-22T23:38:59.037Z,30.80
2022-10-22T23:41:27.538Z,27.90
2022-10-22T23:43:55.982Z,28.20
2022-10-22T23:46:24.691Z,29.20
2022-10-22T23:48:53.163Z,34.90
2022-10-22T23:51:22.197Z,32.70
2022-10-22T23:53:56.513Z,28.70
2022-10-22T23:56:25.252Z,29.60
2022-10-22T23:58:53.929Z,30.80
